createdAt,value
2017-12-27T11:56:01.188Z,64.05
2017-12-27T11:56:26.757Z,64.05
2017-12-27T11:56:52.320Z,63.76
2017-12-27T11:57:17.914Z,64.25
2017-12-27T11:57:43.493Z,63.76
2017-12-27T11:58:09.047Z,63.67
2017-12-27T11:58:34.733Z,63.76
2017-12-27T11:59:00.291Z,63.67
2017-12-27T11:59:25.876Z,63.67
2017-12-27T11:59:51.472Z,63.95
2017-12-27T12:00:17.052Z,63.86
2017-12-27T12:00:42.624Z,63.95
2017-12-27T12:01:08.204Z,63.57
2017-12-27T12:01:33.854Z,63.67
2017-12-27T12:01:59.498Z,64.05
2017-12-27T12:02:25.077Z,63.95
2017-12-27T12:02:50.677Z,63.48
2017-12-27T12:03:16.235Z,63.45
2017-12-27T12:03:41.812Z,63.57
2017-12-27T12:04:07.398Z,63.57
2017-12-27T12:04:33.028Z,63.45
2017-12-27T12:04:58.616Z,63.57
2017-12-27T12:05:24.169Z,63.67
2017-12-27T12:05:49.798Z,63.48
2017-12-27T12:06:15.367Z,63.57
2017-12-27T12:06:40.947Z,63.48
2017-12-27T12:07:06.532Z,63.38
2017-12-27T12:07:32.105Z,63.48
2017-12-27T12:07:57.646Z,63.57
2017-12-27T12:08:23.209Z,63.57
2017-12-27T12:08:48.762Z,63.38
2017-12-27T12:09:14.341Z,63.09
2017-12-27T12:09:39.926Z,63.48
2017-12-27T12:10:05.508Z,63.38
2017-12-27T12:10:31.091Z,63.28
2017-12-27T12:10:56.662Z,63.38
2017-12-27T12:11:22.249Z,63.38
2017-12-27T12:11:47.836Z,63.28
2017-12-27T12:12:13.419Z,63.18
2017-12-27T12:12:38.985Z,63.28
2017-12-27T12:13:04.566Z,63.48
2017-12-27T12:13:30.161Z,63.28
2017-12-27T12:13:55.763Z,63.28
2017-12-27T12:14:21.335Z,63.38
2017-12-27T12:14:46.906Z,63.18
2017-12-27T12:15:12.527Z,63.38
2017-12-27T12:15:38.127Z,63.28
2017-12-27T12:16:03.684Z,63.38
2017-12-27T12:16:29.231Z,62.99
2017-12-27T12:16:54.845Z,63.48
2017-12-27T12:17:20.427Z,63.28
2017-12-27T12:17:46.233Z,63.38
2017-12-27T12:18:11.765Z,63.38
2017-12-27T12:18:37.494Z,63.38
2017-12-27T12:19:03.072Z,63.09
2017-12-27T12:19:28.658Z,63.67
2017-12-27T12:19:54.280Z,63.38
2017-12-27T12:20:19.856Z,63.38
2017-12-27T12:20:45.449Z,63.38
2017-12-27T12:21:11.044Z,63.57
2017-12-27T12:21:36.616Z,63.38
2017-12-27T12:22:02.191Z,63.48
2017-12-27T12:22:27.782Z,63.57
2017-12-27T12:22:53.485Z,63.48
2017-12-27T12:23:19.038Z,63.28
2017-12-27T12:23:44.600Z,63.28
2017-12-27T12:24:10.281Z,63.48
2017-12-27T12:24:35.908Z,63.38
2017-12-27T12:25:01.463Z,63.57
2017-12-27T12:25:27.075Z,63.57
2017-12-27T12:25:52.650Z,62.8
2017-12-27T12:26:18.242Z,62.99
2017-12-27T12:26:43.825Z,63.09
2017-12-27T12:27:09.445Z,63.28
2017-12-27T12:27:35.031Z,63.57
2017-12-27T12:28:00.600Z,63.18
2017-12-27T12:28:26.243Z,63.18
2017-12-27T12:28:51.827Z,63.48
2017-12-27T12:29:17.455Z,63.38
2017-12-27T12:29:42.958Z,63.28
2017-12-27T12:30:08.566Z,63.28
2017-12-27T12:30:34.139Z,63.38
2017-12-27T12:30:59.708Z,63.38
2017-12-27T12:31:25.281Z,63.38
2017-12-27T12:31:50.847Z,63.48
2017-12-27T12:32:16.422Z,63.38
2017-12-27T12:32:42.010Z,63.28
2017-12-27T12:33:07.601Z,63.18
2017-12-27T12:33:33.161Z,63.09
2017-12-27T12:33:58.764Z,63.18
2017-12-27T12:34:24.330Z,63.09
2017-12-27T12:34:49.907Z,62.99
2017-12-27T12:35:15.476Z,63.48
2017-12-27T12:35:41.038Z,63.28
2017-12-27T12:36:06.622Z,63.38
2017-12-27T12:36:32.219Z,63.57
2017-12-27T12:36:57.812Z,63.48
2017-12-27T12:37:23.463Z,63.18
2017-12-27T12:37:49.026Z,63.09
2017-12-27T12:38:14.600Z,63.57
2017-12-27T12:38:40.185Z,63.48
2017-12-27T12:39:05.756Z,63.57
2017-12-27T12:39:31.314Z,63.09
2017-12-27T12:39:56.880Z,62.8
2017-12-27T12:40:22.619Z,63.38
2017-12-27T12:40:48.279Z,63.57
2017-12-27T12:41:13.897Z,63.18
2017-12-27T12:41:39.458Z,63.38
2017-12-27T12:42:05.012Z,63.38
2017-12-27T12:42:30.580Z,63.18
2017-12-27T12:42:56.140Z,63.57
2017-12-27T12:43:21.694Z,63.38
2017-12-27T12:43:47.382Z,63.48
2017-12-27T12:44:12.958Z,63.18
2017-12-27T12:44:38.522Z,63.57
2017-12-27T12:45:04.158Z,63.48
2017-12-27T12:45:29.703Z,63.38
2017-12-27T12:45:55.267Z,62.99
2017-12-27T12:46:20.856Z,63.57
2017-12-27T12:46:46.492Z,63.28
2017-12-27T12:47:12.047Z,63.18
2017-12-27T12:47:37.600Z,62.99
2017-12-27T12:48:03.156Z,63.48
2017-12-27T12:48:28.697Z,63.48
2017-12-27T12:48:54.250Z,63.28
2017-12-27T12:49:19.888Z,63.57
2017-12-27T12:49:45.477Z,63.38
2017-12-27T12:50:11.036Z,63.38
2017-12-27T12:50:36.607Z,63.38
2017-12-27T12:51:02.156Z,63.28
2017-12-27T12:51:27.743Z,63.38
2017-12-27T12:51:53.388Z,63.09
2017-12-27T12:52:18.942Z,63.28
2017-12-27T12:52:44.509Z,63.18
2017-12-27T12:53:10.084Z,63.38
2017-12-27T12:53:35.662Z,63.38
2017-12-27T12:54:01.231Z,63.38
2017-12-27T12:54:26.818Z,63.28
2017-12-27T12:54:52.414Z,63.38
2017-12-27T12:55:18.008Z,63.57
2017-12-27T12:55:43.608Z,63.09
2017-12-27T12:56:09.167Z,63.48
2017-12-27T12:56:34.724Z,63.28
2017-12-27T12:57:00.312Z,63.18
2017-12-27T12:57:25.879Z,63.38
2017-12-27T12:57:51.459Z,63.09
2017-12-27T12:58:17.017Z,63.18
2017-12-27T12:58:42.586Z,63.28
2017-12-27T12:59:08.129Z,63.28
2017-12-27T12:59:33.737Z,63.09
2017-12-27T12:59:59.300Z,63.18
2017-12-27T13:00:24.861Z,63.28
2017-12-27T13:00:50.580Z,63.38
2017-12-27T13:01:16.093Z,63.38
2017-12-27T13:01:41.669Z,63.38
2017-12-27T13:02:07.285Z,63.28
2017-12-27T13:02:32.873Z,63.38
2017-12-27T13:02:58.411Z,63.48
2017-12-27T13:03:24.037Z,63.48
2017-12-27T13:03:49.616Z,63.28
2017-12-27T13:04:15.169Z,63.28
2017-12-27T13:04:40.745Z,63.38
2017-12-27T13:05:06.359Z,63.48
2017-12-27T13:05:31.888Z,63.48
2017-12-27T13:05:57.478Z,63.09
2017-12-27T13:06:23.052Z,63.38
2017-12-27T13:06:48.624Z,63.38
2017-12-27T13:07:14.194Z,63.18
2017-12-27T13:07:39.779Z,63.38
2017-12-27T13:08:05.333Z,63.38
2017-12-27T13:08:30.910Z,63.38
2017-12-27T13:08:56.466Z,63.38
2017-12-27T13:09:22.027Z,63.28
2017-12-27T13:09:47.660Z,63.28
2017-12-27T13:10:13.290Z,63.28
2017-12-27T13:10:38.861Z,63.28
2017-12-27T13:11:04.416Z,63.28
2017-12-27T13:11:30.047Z,63.28
2017-12-27T13:11:55.603Z,63.28
2017-12-27T13:12:21.163Z,63.28
2017-12-27T13:12:46.758Z,63.28
2017-12-27T13:13:12.332Z,63.28
2017-12-27T13:13:37.915Z,63.28
2017-12-27T13:14:03.489Z,63.28
2017-12-27T13:14:29.046Z,63.38
2017-12-27T13:14:54.619Z,63.38
2017-12-27T13:15:20.203Z,62.9
2017-12-27T13:15:45.771Z,63.28
2017-12-27T13:16:11.340Z,63.28
2017-12-27T13:16:36.923Z,63.28
2017-12-27T13:17:02.476Z,63.28
2017-12-27T13:17:28.065Z,63.38
2017-12-27T13:17:53.634Z,63.38
2017-12-27T13:18:19.193Z,63.28
2017-12-27T13:18:44.786Z,63.18
2017-12-27T13:19:10.358Z,63.09
2017-12-27T13:19:35.964Z,63.38
2017-12-27T13:20:01.529Z,63.28
2017-12-27T13:20:27.096Z,63.28
2017-12-27T13:20:52.681Z,63.28
2017-12-27T13:21:18.231Z,63.38
2017-12-27T13:21:43.805Z,63.18
2017-12-27T13:22:09.364Z,63.48
2017-12-27T13:22:34.948Z,63.38
2017-12-27T13:23:00.540Z,63.48
2017-12-27T13:23:26.106Z,63.18
2017-12-27T13:23:51.673Z,63.48
2017-12-27T13:24:17.248Z,63.57
2017-12-27T13:24:42.852Z,63.18
2017-12-27T13:25:08.440Z,62.99
2017-12-27T13:25:33.996Z,62.9
2017-12-27T13:25:59.639Z,62.9
2017-12-27T13:26:25.240Z,62.99
2017-12-27T13:26:50.790Z,63.18
2017-12-27T13:27:16.411Z,63.18
2017-12-27T13:27:41.960Z,63.18
2017-12-27T13:28:07.529Z,62.9
2017-12-27T13:28:33.242Z,63.48
2017-12-27T13:28:58.915Z,63.67
2017-12-27T13:29:24.447Z,63.57
2017-12-27T13:29:50.021Z,63.57
2017-12-27T13:30:15.661Z,63.57
2017-12-27T13:30:41.283Z,62.8
2017-12-27T13:31:06.838Z,63.09
2017-12-27T13:31:32.417Z,63.09
2017-12-27T13:31:57.997Z,62.8
2017-12-27T13:32:23.558Z,63.57
2017-12-27T13:32:49.138Z,63.28
2017-12-27T13:33:14.712Z,63.18
2017-12-27T13:33:40.268Z,63.57
2017-12-27T13:34:05.871Z,63.38
2017-12-27T13:34:31.478Z,62.99
2017-12-27T13:34:57.063Z,63.28
2017-12-27T13:35:22.679Z,63.28
2017-12-27T13:35:48.242Z,63.28
2017-12-27T13:36:13.796Z,63.18
2017-12-27T13:36:39.379Z,63.18
2017-12-27T13:37:05.035Z,63.28
2017-12-27T13:37:30.609Z,63.38
2017-12-27T13:37:56.155Z,63.28
2017-12-27T13:38:21.737Z,63.18
2017-12-27T13:38:47.387Z,63.48
2017-12-27T13:39:12.960Z,63.28
2017-12-27T13:39:38.583Z,63.38
2017-12-27T13:40:04.211Z,63.28
2017-12-27T13:40:29.776Z,63.48
2017-12-27T13:40:55.417Z,63.28
2017-12-27T13:41:21.034Z,63.38
2017-12-27T13:41:46.600Z,63.28
2017-12-27T13:42:12.178Z,63.28
2017-12-27T13:42:37.739Z,63.48
2017-12-27T13:43:03.303Z,63.28
2017-12-27T13:43:28.864Z,63.38
2017-12-27T13:43:54.431Z,63.28
2017-12-27T13:44:20.010Z,63.38
2017-12-27T13:44:45.592Z,63.48
2017-12-27T13:45:11.196Z,63.86
2017-12-27T13:45:36.771Z,63.48
2017-12-27T13:46:02.394Z,63.86
2017-12-27T13:46:28.040Z,63.48
2017-12-27T13:46:53.689Z,63.48
2017-12-27T13:47:19.284Z,63.48
2017-12-27T13:47:44.894Z,63.28
2017-12-27T13:48:10.446Z,63.86
2017-12-27T13:48:36.022Z,63.86
2017-12-27T13:49:01.590Z,63.09
2017-12-27T13:49:27.159Z,63.86
2017-12-27T13:49:52.717Z,63.57
2017-12-27T13:50:18.304Z,63.86
2017-12-27T13:50:43.888Z,63.57
2017-12-27T13:51:09.499Z,63.57
2017-12-27T13:51:35.035Z,63.28
2017-12-27T13:52:00.588Z,63.48
2017-12-27T13:52:26.177Z,63.57
2017-12-27T13:52:51.760Z,63.48
2017-12-27T13:53:17.310Z,63.86
2017-12-27T13:53:42.878Z,63.48
2017-12-27T13:54:08.482Z,63.57
2017-12-27T13:54:34.073Z,63.38
2017-12-27T13:54:59.661Z,63.38
2017-12-27T13:55:25.223Z,63.57
2017-12-27T13:55:50.783Z,63.28
2017-12-27T13:56:16.445Z,63.57
2017-12-27T13:56:41.995Z,63.67
2017-12-27T13:57:07.561Z,63.57
2017-12-27T13:57:33.112Z,63.67
2017-12-27T13:57:58.731Z,63.67
2017-12-27T13:58:24.307Z,63.67
2017-12-27T13:58:49.902Z,63.86
2017-12-27T13:59:15.464Z,63.57
2017-12-27T13:59:41.037Z,63.57
2017-12-27T14:00:06.588Z,63.67
2017-12-27T14:00:32.151Z,63.38
2017-12-27T14:00:57.724Z,63.76
2017-12-27T14:01:23.346Z,63.57
2017-12-27T14:01:48.927Z,63.57
2017-12-27T14:02:14.482Z,63.76
2017-12-27T14:02:40.101Z,64.05
2017-12-27T14:03:05.680Z,63.57
2017-12-27T14:03:31.240Z,63.67
2017-12-27T14:03:56.820Z,63.67
2017-12-27T14:04:22.394Z,63.57
2017-12-27T14:04:47.965Z,63.57
2017-12-27T14:05:13.555Z,63.57
2017-12-27T14:05:39.110Z,63.57
2017-12-27T14:06:04.668Z,63.67
2017-12-27T14:06:30.257Z,63.57
2017-12-27T14:06:55.903Z,63.57
2017-12-27T14:07:21.483Z,63.57
2017-12-27T14:07:47.049Z,63.38
2017-12-27T14:08:12.635Z,63.48
2017-12-27T14:08:38.196Z,63.57
2017-12-27T14:09:03.789Z,63.38
2017-12-27T14:09:29.395Z,63.48
2017-12-27T14:09:54.944Z,63.48
2017-12-27T14:10:20.530Z,63.28
2017-12-27T14:10:46.123Z,63.48
2017-12-27T14:11:11.686Z,63.86
2017-12-27T14:11:37.238Z,63.57
2017-12-27T14:12:02.819Z,63.28
2017-12-27T14:12:28.393Z,63.28
2017-12-27T14:12:53.942Z,63.48
2017-12-27T14:13:19.541Z,63.67
2017-12-27T14:13:45.119Z,63.57
2017-12-27T14:14:10.689Z,63.57
2017-12-27T14:14:36.288Z,63.57
2017-12-27T14:15:01.919Z,63.48
2017-12-27T14:15:27.447Z,63.48
2017-12-27T14:15:53.007Z,63.67
2017-12-27T14:16:18.592Z,63.76
2017-12-27T14:16:44.158Z,63.76
2017-12-27T14:17:09.724Z,63.67
2017-12-27T14:17:35.315Z,63.76
2017-12-27T14:18:00.872Z,63.48
2017-12-27T14:18:26.495Z,63.57
2017-12-27T14:18:52.078Z,63.48
2017-12-27T14:19:17.643Z,63.28
2017-12-27T14:19:43.220Z,63.67
2017-12-27T14:20:08.906Z,63.67
2017-12-27T14:20:34.460Z,63.67
2017-12-27T14:21:00.030Z,63.57
2017-12-27T14:21:25.594Z,63.67
2017-12-27T14:21:51.170Z,63.48
2017-12-27T14:22:16.715Z,64.05
2017-12-27T14:22:42.268Z,63.67
2017-12-27T14:23:07.831Z,63.67
2017-12-27T14:23:33.402Z,63.67
2017-12-27T14:23:59.052Z,64.15
2017-12-27T14:24:24.616Z,63.57
2017-12-27T14:24:50.193Z,63.86
2017-12-27T14:25:15.756Z,63.67
2017-12-27T14:25:41.325Z,64.05
2017-12-27T14:26:06.895Z,63.76
2017-12-27T14:26:32.467Z,64.34
2017-12-27T14:26:58.019Z,63.67
2017-12-27T14:27:23.580Z,63.67
2017-12-27T14:27:49.124Z,63.48
2017-12-27T14:28:14.700Z,63.48
2017-12-27T14:28:40.276Z,63.76
2017-12-27T14:29:05.881Z,63.86
2017-12-27T14:29:31.447Z,63.48
2017-12-27T14:29:57.029Z,64.15
2017-12-27T14:30:22.604Z,63.95
2017-12-27T14:30:48.279Z,63.67
2017-12-27T14:31:13.856Z,63.57
2017-12-27T14:31:39.434Z,63.48
2017-12-27T14:32:05.025Z,63.38
2017-12-27T14:32:30.597Z,63.67
2017-12-27T14:32:56.145Z,63.57
2017-12-27T14:33:21.750Z,63.57
2017-12-27T14:33:47.319Z,63.57
2017-12-27T14:34:12.953Z,64.05
2017-12-27T14:34:38.543Z,63.86
2017-12-27T14:35:04.119Z,63.95
2017-12-27T14:35:29.681Z,63.67
2017-12-27T14:35:55.251Z,63.95
2017-12-27T14:36:20.822Z,64.25
2017-12-27T14:36:46.410Z,64.05
2017-12-27T14:37:12.119Z,64.05
2017-12-27T14:37:37.699Z,64.25
2017-12-27T14:38:03.246Z,64.25
2017-12-27T14:38:28.901Z,64.05
2017-12-27T14:38:54.466Z,63.76
2017-12-27T14:39:20.077Z,63.67
2017-12-27T14:39:45.646Z,63.95
2017-12-27T14:40:11.378Z,63.86
2017-12-27T14:40:36.939Z,63.95
2017-12-27T14:41:02.519Z,64.05
2017-12-27T14:41:28.095Z,64.25
2017-12-27T14:41:55.049Z,64.05
2017-12-27T14:42:19.281Z,64.25
2017-12-27T14:42:44.831Z,63.95
2017-12-27T14:43:10.438Z,64.15
2017-12-27T14:43:35.985Z,63.95
2017-12-27T14:44:01.550Z,63.95
2017-12-27T14:44:27.100Z,64.05
2017-12-27T14:44:52.670Z,64.25
2017-12-27T14:45:18.241Z,64.25
2017-12-27T14:45:43.900Z,64.05
2017-12-27T14:46:09.450Z,64.05
2017-12-27T14:46:35.015Z,64.15
2017-12-27T14:47:00.579Z,63.86
2017-12-27T14:47:26.141Z,64.05
2017-12-27T14:47:51.707Z,63.95
2017-12-27T14:48:17.277Z,63.95
2017-12-27T14:48:42.854Z,63.86
2017-12-27T14:49:08.434Z,64.15
2017-12-27T14:49:34.018Z,63.76
2017-12-27T14:49:59.656Z,64.15
2017-12-27T14:50:25.220Z,64.05
2017-12-27T14:50:50.810Z,64.25
2017-12-27T14:51:16.365Z,63.76
2017-12-27T14:51:41.954Z,64.05
2017-12-27T14:52:07.528Z,63.76
2017-12-27T14:52:33.117Z,64.15
2017-12-27T14:52:58.692Z,64.25
2017-12-27T14:53:24.259Z,64.15
2017-12-27T14:53:49.800Z,64.15
2017-12-27T14:54:15.409Z,64.25
2017-12-27T14:54:40.962Z,64.25
2017-12-27T14:55:06.515Z,64.05
2017-12-27T14:55:32.067Z,63.95
2017-12-27T14:55:57.628Z,64.05
2017-12-27T14:56:23.214Z,64.25
2017-12-27T14:56:48.808Z,63.76
2017-12-27T14:57:14.360Z,63.86
2017-12-27T14:57:40.052Z,64.05
2017-12-27T14:58:05.658Z,64.25
2017-12-27T14:58:31.192Z,64.05
2017-12-27T14:58:56.745Z,64.25
2017-12-27T14:59:22.318Z,63.95
2017-12-27T14:59:47.873Z,64.05
2017-12-27T15:00:13.481Z,63.95
2017-12-27T15:00:39.039Z,64.25
2017-12-27T15:01:04.605Z,64.05
2017-12-27T15:01:30.273Z,63.95
2017-12-27T15:01:55.826Z,63.86
2017-12-27T15:02:21.403Z,64.15
2017-12-27T15:02:46.995Z,63.95
2017-12-27T15:03:12.573Z,64.05
2017-12-27T15:03:38.150Z,64.15
2017-12-27T15:04:03.731Z,64.05
2017-12-27T15:04:29.295Z,63.76
2017-12-27T15:04:54.855Z,64.05
2017-12-27T15:05:20.435Z,64.25
2017-12-27T15:05:46.031Z,64.05
2017-12-27T15:06:11.584Z,64.05
2017-12-27T15:06:37.126Z,64.05
2017-12-27T15:07:02.730Z,63.76
2017-12-27T15:07:28.320Z,64.15
2017-12-27T15:07:53.879Z,64.15
2017-12-27T15:08:19.470Z,63.95
2017-12-27T15:08:45.041Z,64.15
2017-12-27T15:09:10.620Z,64.05
2017-12-27T15:09:36.247Z,63.86
2017-12-27T15:10:01.821Z,63.95
2017-12-27T15:10:27.399Z,63.86
2017-12-27T15:10:53.012Z,63.95
2017-12-27T15:11:18.581Z,64.25
2017-12-27T15:11:44.152Z,64.05
2017-12-27T15:12:09.765Z,64.05
2017-12-27T15:12:35.323Z,63.86
2017-12-27T15:13:00.921Z,63.95
2017-12-27T15:13:26.480Z,63.95
2017-12-27T15:13:52.032Z,64.25
2017-12-27T15:14:17.588Z,63.95
2017-12-27T15:14:43.214Z,64.05
2017-12-27T15:15:08.800Z,63.95
2017-12-27T15:15:34.339Z,63.95
2017-12-27T15:15:59.919Z,63.57
2017-12-27T15:16:25.512Z,63.86
2017-12-27T15:16:51.071Z,64.05
2017-12-27T15:17:16.649Z,63.95
2017-12-27T15:17:42.222Z,63.67
2017-12-27T15:18:07.785Z,63.95
2017-12-27T15:18:33.345Z,63.95
2017-12-27T15:18:58.921Z,63.95
2017-12-27T15:19:24.488Z,63.95
2017-12-27T15:19:50.093Z,64.05
2017-12-27T15:20:15.655Z,64.25
2017-12-27T15:20:41.215Z,63.86
2017-12-27T15:21:06.843Z,63.67
2017-12-27T15:21:32.389Z,63.57
2017-12-27T15:21:58.031Z,64.05
2017-12-27T15:22:23.625Z,63.67
2017-12-27T15:22:49.212Z,63.95
2017-12-27T15:23:14.779Z,63.67
2017-12-27T15:23:40.335Z,63.95
2017-12-27T15:24:05.900Z,63.48
2017-12-27T15:24:31.459Z,63.76
2017-12-27T15:24:57.009Z,63.86
2017-12-27T15:25:22.592Z,63.95
2017-12-27T15:25:48.181Z,63.67
2017-12-27T15:26:13.750Z,63.48
2017-12-27T15:26:39.292Z,63.48
2017-12-27T15:27:04.877Z,63.67
2017-12-27T15:27:30.439Z,63.76
2017-12-27T15:27:56.011Z,64.02
2017-12-27T15:28:21.659Z,63.45
2017-12-27T15:28:47.231Z,63.86
2017-12-27T15:29:12.829Z,64.15
2017-12-27T15:29:38.398Z,64.15
2017-12-27T15:30:03.982Z,64.25
2017-12-27T15:30:29.596Z,63.95
2017-12-27T15:30:55.176Z,63.95
2017-12-27T15:31:20.727Z,64.15
2017-12-27T15:31:46.338Z,63.57
2017-12-27T15:32:11.889Z,63.86
2017-12-27T15:32:37.481Z,63.64
2017-12-27T15:33:03.058Z,63.67
2017-12-27T15:33:28.626Z,63.67
2017-12-27T15:33:54.213Z,63.54
2017-12-27T15:34:19.781Z,63.67
2017-12-27T15:34:45.353Z,64.15
2017-12-27T15:35:10.917Z,64.12
2017-12-27T15:35:36.493Z,64.02
2017-12-27T15:36:02.060Z,63.92
2017-12-27T15:36:27.631Z,64.22
2017-12-27T15:36:53.238Z,63.73
2017-12-27T15:37:18.795Z,63.54
2017-12-27T15:37:44.355Z,63.95
2017-12-27T15:38:09.928Z,64.05
2017-12-27T15:38:35.578Z,64.22
2017-12-27T15:39:01.117Z,63.92
2017-12-27T15:39:26.708Z,63.86
2017-12-27T15:39:52.315Z,63.64
2017-12-27T15:40:17.912Z,63.73
2017-12-27T15:40:43.468Z,64.05
2017-12-27T15:41:09.062Z,64.12
2017-12-27T15:41:34.614Z,64.12
2017-12-27T15:42:00.192Z,63.92
2017-12-27T15:42:25.861Z,64.12
2017-12-27T15:42:51.450Z,63.83
2017-12-27T15:43:17.008Z,64.02
2017-12-27T15:43:42.611Z,63.86
2017-12-27T15:44:08.176Z,64.05
2017-12-27T15:44:33.806Z,64.22
2017-12-27T15:44:59.387Z,64.25
2017-12-27T15:45:24.964Z,64.12
2017-12-27T15:45:50.523Z,64.02
2017-12-27T15:46:16.097Z,63.92
2017-12-27T15:46:41.689Z,64.02
2017-12-27T15:47:07.247Z,64.22
2017-12-27T15:47:32.831Z,64.02
2017-12-27T15:47:58.385Z,63.92
2017-12-27T15:48:23.960Z,63.92
2017-12-27T15:48:49.648Z,64.22
2017-12-27T15:49:15.261Z,64.22
2017-12-27T15:49:40.834Z,64.12
2017-12-27T15:50:06.404Z,64.12
2017-12-27T15:50:31.970Z,64.12
2017-12-27T15:50:57.560Z,64.22
2017-12-27T15:51:23.133Z,64.12
2017-12-27T15:51:48.711Z,63.92
2017-12-27T15:52:14.269Z,63.92
2017-12-27T15:52:39.846Z,64.31
2017-12-27T15:53:05.511Z,64.02
2017-12-27T15:53:31.061Z,64.02
2017-12-27T15:53:56.648Z,63.92
2017-12-27T15:54:22.196Z,63.92
2017-12-27T15:54:47.855Z,63.92
2017-12-27T15:55:13.443Z,63.92
2017-12-27T15:55:39.030Z,64.05
2017-12-27T15:56:04.584Z,63.73
2017-12-27T15:56:30.176Z,63.92
2017-12-27T15:56:55.736Z,63.92
2017-12-27T15:57:21.298Z,64.12
2017-12-27T15:57:46.880Z,63.83
2017-12-27T15:58:12.475Z,64.12
2017-12-27T15:58:38.042Z,63.73
2017-12-27T15:59:03.597Z,64.12
2017-12-27T15:59:29.153Z,63.92
2017-12-27T15:59:54.710Z,64.02
2017-12-27T16:00:20.289Z,63.83
2017-12-27T16:00:45.845Z,64.12
2017-12-27T16:01:11.458Z,64.15
2017-12-27T16:01:37.075Z,64.05
2017-12-27T16:02:02.652Z,63.83
2017-12-27T16:02:28.317Z,64.02
2017-12-27T16:02:53.873Z,63.95
2017-12-27T16:03:19.433Z,64.12
2017-12-27T16:03:45.000Z,64.02
2017-12-27T16:04:10.554Z,63.92
2017-12-27T16:04:36.125Z,64.12
2017-12-27T16:05:01.755Z,63.83
2017-12-27T16:05:27.317Z,63.86
2017-12-27T16:05:52.872Z,64.12
2017-12-27T16:06:18.467Z,63.83
2017-12-27T16:06:44.036Z,63.86
2017-12-27T16:07:09.590Z,63.92
2017-12-27T16:07:35.177Z,64.02
2017-12-27T16:08:00.750Z,63.86
2017-12-27T16:08:26.347Z,64.15
2017-12-27T16:08:51.911Z,63.83
2017-12-27T16:09:17.501Z,64.05
2017-12-27T16:09:43.075Z,63.86
2017-12-27T16:10:08.676Z,64.05
2017-12-27T16:10:34.219Z,63.76
2017-12-27T16:10:59.811Z,64.05
2017-12-27T16:11:25.381Z,64.15
2017-12-27T16:11:50.964Z,63.64
2017-12-27T16:12:16.530Z,63.86
2017-12-27T16:12:42.108Z,63.95
2017-12-27T16:13:07.664Z,63.83
2017-12-27T16:13:33.245Z,63.92
2017-12-27T16:13:58.862Z,64.12
2017-12-27T16:14:24.413Z,63.95
2017-12-27T16:14:49.989Z,64.15
2017-12-27T16:15:15.565Z,63.86
2017-12-27T16:15:41.115Z,64.02
2017-12-27T16:16:06.701Z,64.15
2017-12-27T16:16:32.264Z,63.83
2017-12-27T16:16:57.904Z,63.83
2017-12-27T16:17:23.538Z,63.86
2017-12-27T16:17:49.104Z,63.86
2017-12-27T16:18:14.674Z,63.95
2017-12-27T16:18:40.252Z,63.86
2017-12-27T16:19:05.830Z,64.15
2017-12-27T16:19:31.393Z,64.15
2017-12-27T16:19:56.968Z,64.15
2017-12-27T16:20:22.542Z,63.86
2017-12-27T16:20:48.130Z,64.05
2017-12-27T16:21:13.691Z,63.86
2017-12-27T16:21:39.258Z,64.15
2017-12-27T16:22:04.981Z,63.83
2017-12-27T16:23:19.335Z,64.15
2017-12-27T16:23:44.903Z,63.83
2017-12-27T16:24:10.600Z,64.05
2017-12-27T16:24:36.268Z,63.95
2017-12-27T16:25:01.890Z,63.86
2017-12-27T16:25:27.477Z,63.95
2017-12-27T16:25:53.088Z,63.95
2017-12-27T16:26:18.632Z,63.95
2017-12-27T16:26:44.235Z,64.05
2017-12-27T16:27:09.785Z,63.95
2017-12-27T16:27:35.368Z,64.05
2017-12-27T16:28:00.940Z,64.05
2017-12-27T16:28:26.509Z,63.95
2017-12-27T16:28:52.128Z,63.86
2017-12-27T16:29:17.695Z,63.95
2017-12-27T16:29:43.252Z,63.92
2017-12-27T16:30:08.800Z,64.15
2017-12-27T16:30:34.411Z,64.05
2017-12-27T16:31:00.007Z,64.15
2017-12-27T16:31:25.628Z,64.05
2017-12-27T16:31:51.210Z,63.76
2017-12-27T16:32:16.765Z,63.76
2017-12-27T16:32:42.353Z,64.15
2017-12-27T16:33:07.905Z,63.95
2017-12-27T16:33:33.450Z,64.15
2017-12-27T16:33:59.082Z,64.05
2017-12-27T16:34:24.657Z,63.86
2017-12-27T16:34:50.208Z,64.05
2017-12-27T16:35:15.860Z,63.76
2017-12-27T16:35:41.440Z,63.95
2017-12-27T16:36:07.000Z,64.05
2017-12-27T16:36:32.584Z,64.05
2017-12-27T16:36:58.157Z,63.95
2017-12-27T16:37:23.716Z,63.86
2017-12-27T16:37:49.290Z,64.25
2017-12-27T16:38:14.836Z,64.25
2017-12-27T16:38:40.396Z,64.05
2017-12-27T16:39:06.025Z,64.25
2017-12-27T16:39:31.577Z,64.25
2017-12-27T16:39:57.141Z,64.15
2017-12-27T16:40:22.764Z,63.86
2017-12-27T16:40:48.341Z,64.05
2017-12-27T16:41:13.902Z,64.05
2017-12-27T16:41:39.454Z,63.86
2017-12-27T16:42:05.110Z,64.05
2017-12-27T16:42:30.686Z,64.05
2017-12-27T16:42:56.242Z,64.05
2017-12-27T16:43:21.875Z,64.15
2017-12-27T16:43:47.419Z,63.67
2017-12-27T16:44:13.003Z,64.25
2017-12-27T16:44:38.567Z,63.95
2017-12-27T16:45:04.157Z,63.95
2017-12-27T16:45:29.737Z,63.95
2017-12-27T16:45:55.456Z,63.95
2017-12-27T16:46:21.111Z,63.95
2017-12-27T16:46:46.693Z,64.25
2017-12-27T16:47:12.284Z,63.92
2017-12-27T16:47:37.908Z,64.25
2017-12-27T16:48:03.600Z,63.86
2017-12-27T16:48:29.168Z,63.76
2017-12-27T16:49:43.086Z,64.05
2017-12-27T16:50:08.642Z,63.67
2017-12-27T16:50:34.223Z,63.67
2017-12-27T16:50:59.775Z,63.67
2017-12-27T16:51:25.344Z,63.48
2017-12-27T16:51:50.905Z,63.67
2017-12-27T16:52:16.483Z,63.57
2017-12-27T16:52:42.108Z,63.64
2017-12-27T16:53:07.689Z,63.57
2017-12-27T16:53:33.240Z,63.67
2017-12-27T16:53:58.810Z,63.38
2017-12-27T16:54:24.358Z,63.48
2017-12-27T16:54:49.926Z,63.67
2017-12-27T16:55:15.508Z,63.86
2017-12-27T16:55:41.066Z,63.67
2017-12-27T16:56:06.646Z,63.67
2017-12-27T16:56:32.341Z,63.73
2017-12-27T16:56:57.911Z,63.54
2017-12-27T16:57:23.501Z,63.86
2017-12-27T16:57:49.062Z,63.95
2017-12-27T16:58:14.669Z,63.57
2017-12-27T16:58:40.229Z,63.64
2017-12-27T16:59:05.786Z,63.57
2017-12-27T16:59:31.472Z,63.67
2017-12-27T16:59:57.016Z,63.57
2017-12-27T17:00:22.590Z,63.48
2017-12-27T17:00:48.144Z,63.64
2017-12-27T17:01:13.722Z,63.57
2017-12-27T17:01:39.318Z,63.95
2017-12-27T17:02:04.975Z,64.05
2017-12-27T17:02:30.547Z,63.67
2017-12-27T17:02:56.116Z,63.92
2017-12-27T17:03:21.636Z,63.67
2017-12-27T17:03:47.225Z,63.67
2017-12-27T17:04:12.774Z,63.54
2017-12-27T17:04:38.365Z,63.76
2017-12-27T17:05:03.930Z,63.95
2017-12-27T17:05:29.495Z,63.38
2017-12-27T17:05:55.071Z,63.86
2017-12-27T17:06:20.628Z,63.67
2017-12-27T17:06:46.196Z,63.92
2017-12-27T17:07:11.897Z,63.73
2017-12-27T17:07:37.475Z,63.67
2017-12-27T17:08:03.032Z,63.64
2017-12-27T17:08:28.752Z,63.64
2017-12-27T17:08:54.328Z,63.67
2017-12-27T17:09:19.899Z,63.67
2017-12-27T17:09:45.444Z,64.02
2017-12-27T17:10:11.077Z,64.05
2017-12-27T17:10:36.648Z,63.92
2017-12-27T17:11:02.215Z,64.15
2017-12-27T17:11:27.793Z,63.64
2017-12-27T17:11:53.420Z,63.73
2017-12-27T17:12:19.002Z,64.02
2017-12-27T17:12:44.616Z,63.54
2017-12-27T17:13:10.319Z,63.92
2017-12-27T17:13:35.874Z,63.67
2017-12-27T17:14:01.451Z,64.12
2017-12-27T17:14:27.026Z,63.92
2017-12-27T17:14:52.606Z,64.12
2017-12-27T17:15:18.181Z,64.02
2017-12-27T17:15:43.741Z,64.02
2017-12-27T17:16:09.316Z,64.22
2017-12-27T17:16:34.885Z,64.22
2017-12-27T17:17:00.445Z,64.12
2017-12-27T17:17:26.052Z,64.22
2017-12-27T17:17:51.577Z,64.12
2017-12-27T17:18:17.164Z,64.22
2017-12-27T17:18:42.782Z,64.12
2017-12-27T17:19:08.381Z,64.02
2017-12-27T17:19:33.927Z,64.12
2017-12-27T17:19:59.507Z,64.22
2017-12-27T17:20:25.114Z,64.02
2017-12-27T17:20:50.692Z,64.31
2017-12-27T17:21:16.255Z,64.12
2017-12-27T17:21:41.838Z,64.22
2017-12-27T17:22:07.413Z,64.02
2017-12-27T17:22:32.977Z,64.02
2017-12-27T17:22:58.539Z,63.73
2017-12-27T17:23:24.109Z,64.02
2017-12-27T17:23:49.713Z,64.22
2017-12-27T17:24:15.261Z,64.12
2017-12-27T17:24:40.862Z,64.02
2017-12-27T17:25:06.410Z,64.05
2017-12-27T17:25:31.972Z,63.92
2017-12-27T17:25:57.557Z,63.92
2017-12-27T17:26:23.147Z,63.92
2017-12-27T17:26:48.712Z,64.22